Time;durP1;ratioP1;P1;durP2;ratioP2;P2;SDS_P1;SDS_P2;PMS_P1;PMS_P2;Temp;Humidity;BMP_temperature;BMP_pressure;BME280_temperature;BME280_humidity;BME280_pressure;Samples;Min_cycle;Max_cycle;Signal;HPM_P1;HPM_P2
2022/01/25 00:10:38;;;;;;;81.38;26.77;;;;;;;-11.81;100.00;59577.50;5074684;28;20768;-76
2022/01/25 00:30:21;;;;;;;80.90;26.20;;;;;;;-10.71;100.00;59685.16;5094082;27;1657223;-75
2022/01/25 00:32:50;;;;;;;78.15;26.85;;;;;;;-10.79;100.00;59678.72;5130053;28;20669;-74
2022/01/25 00:35:25;;;;;;;81.10;25.60;;;;;;;-12.38;100.00;59511.13;5130128;28;20202;-74
2022/01/25 00:37:55;;;;;;;83.53;25.50;;;;;;;-11.01;100.00;59655.72;5130258;28;20259;-74
2022/01/25 00:40:22;;;;;;;77.30;25.92;;;;;;;-10.85;100.00;59672.44;5130664;28;20237;-76
2022/01/25 00:42:51;;;;;;;87.25;26.98;;;;;;;-11.05;100.00;59651.53;5130092;28;20668;-75
2022/01/25 00:45:28;;;;;;;88.45;27.15;;;;;;;-11.03;100.00;59648.69;5129956;28;20202;-74
2022/01/25 00:48:02;;;;;;;82.50;27.25;;;;;;;-10.69;100.00;59691.66;5129782;28;20222;-73
2022/01/25 00:50:38;;;;;;;77.55;25.60;;;;;;;-11.00;100.00;59659.22;5129569;28;20212;-75
2022/01/25 00:55:54;;;;;;;76.45;24.98;;;;;;;-10.97;100.00;59657.44;5130565;28;20220;-75
2022/01/25 00:58:24;;;;;;;69.78;24.63;;;;;;;-11.00;100.00;59659.22;5129958;28;20203;-73
2022/01/25 01:00:58;;;;;;;75.72;24.20;;;;;;;-10.98;100.00;59658.84;5131113;28;20199;-75
2022/01/25 01:03:25;;;;;;;58.97;20.90;;;;;;;-12.30;100.00;59521.94;5131266;28;20657;-75
2022/01/25 01:05:57;;;;;;;75.22;24.80;;;;;;;-11.40;100.00;59615.97;5129755;28;20198;-75
2022/01/25 01:08:29;;;;;;;81.10;24.90;;;;;;;-11.07;100.00;59652.41;5129816;28;20233;-75
2022/01/25 01:11:02;;;;;;;85.75;26.00;;;;;;;-12.67;100.00;59485.75;5130009;28;20198;-75
2022/01/25 01:30:38;;;;;;;80.40;26.05;;;;;;;-11.23;100.00;59640.06;5108786;28;20248;-73
2022/01/25 01:39:13;;;;;;;78.50;27.00;;;;;;;-11.26;100.00;59633.06;5106079;28;20259;-73
2022/01/25 01:44:39;;;;;;;86.95;29.02;;;;;;;-11.37;100.00;59621.56;5089339;28;20226;-75
2022/01/25 01:47:20;;;;;;;77.07;25.55;;;;;;;-11.43;100.00;59612.84;5094889;28;20663;-74
2022/01/25 01:49:50;;;;;;;82.60;26.45;;;;;;;-11.77;100.00;59579.25;5094438;28;20238;-75
2022/01/25 01:52:17;;;;;;;81.35;26.58;;;;;;;-11.51;100.00;59604.47;5094842;28;20581;-74
2022/01/25 01:54:47;;;;;;;85.10;27.70;;;;;;;-13.24;100.00;59431.69;5094253;28;20577;-73
2022/01/25 01:57:14;;;;;;;92.38;28.40;;;;;;;-11.56;100.00;59601.69;5095049;28;20265;-72
2022/01/25 02:02:23;;;;;;;83.95;27.13;;;;;;;-11.54;100.00;59600.78;5094391;28;20202;-75
2022/01/25 02:04:54;;;;;;;89.70;28.92;;;;;;;-11.53;100.00;59601.84;5094526;28;20199;-74
2022/01/25 02:07:21;;;;;;;95.85;30.15;;;;;;;-12.75;100.00;59477.41;5094634;28;20249;-75
2022/01/25 02:09:49;;;;;;;84.88;26.92;;;;;;;-12.64;100.00;59488.88;5094605;28;20231;-75
2022/01/25 02:12:18;;;;;;;90.78;29.38;;;;;;;-13.21;100.00;59427.47;5095498;28;20199;-76
2022/01/25 02:14:47;;;;;;;85.50;27.30;;;;;;;-11.41;100.00;59612.47;5093714;28;20203;-72
2022/01/25 02:17:37;;;;;;;82.53;28.17;;;;;;;-12.46;100.00;59505.22;5094404;28;20214;-75
2022/01/25 02:23:17;;;;;;;86.80;26.73;;;;;;;-11.41;100.00;59612.47;5094213;28;20249;-73
2022/01/25 02:25:45;;;;;;;96.78;29.42;;;;;;;-11.70;100.00;59582.16;5094113;28;20199;-76
2022/01/25 02:28:12;;;;;;;78.72;26.00;;;;;;;-12.20;100.00;59529.91;5098298;28;20317;-76
2022/01/25 02:30:40;;;;;;;92.72;29.35;;;;;;;-13.24;100.00;59432.22;5115381;28;20203;-74
2022/01/25 02:33:08;;;;;;;99.45;29.70;;;;;;;-11.70;100.00;59584.63;5114781;28;20203;-75
2022/01/25 02:35:40;;;;;;;89.78;29.05;;;;;;;-11.94;100.00;59557.09;5114228;28;20198;-72
2022/01/25 02:38:11;;;;;;;89.93;28.17;;;;;;;-13.93;100.00;59350.44;5114406;28;20221;-74
2022/01/25 02:40:39;;;;;;;97.80;27.67;;;;;;;-12.26;100.00;59524.19;5115126;28;20292;-75
2022/01/25 02:43:07;;;;;;;94.65;30.63;;;;;;;-12.15;100.00;59540.56;5096174;28;20226;-73
2022/01/25 02:45:36;;;;;;;97.38;28.98;;;;;;;-12.19;100.00;59536.38;5113997;28;20202;-74
2022/01/25 02:50:55;;;;;;;97.22;29.13;;;;;;;-12.03;100.00;59552.59;5114118;28;20286;-74
2022/01/25 02:53:24;;;;;;;77.32;26.60;;;;;;;-11.97;100.00;59558.88;5113464;28;20666;-75
2022/01/25 02:55:54;;;;;;;90.40;26.58;;;;;;;-12.20;100.00;59535.34;5113625;28;20230;-74
2022/01/25 02:58:21;;;;;;;76.05;26.10;;;;;;;-14.07;100.00;59338.84;5113463;28;20210;-75
2022/01/25 03:00:56;;;;;;;71.00;24.58;;;;;;;-12.36;100.00;59520.56;5113756;28;20198;-74
2022/01/25 03:03:25;;;;;;;74.05;25.33;;;;;;;-12.43;100.00;59510.81;5114452;28;20221;-74
2022/01/25 03:05:57;;;;;;;69.93;22.48;;;;;;;-12.47;100.00;59506.63;5113717;28;20580;-74
2022/01/25 03:08:25;;;;;;;67.68;22.70;;;;;;;-12.40;100.00;59511.47;5095773;28;20203;-75
2022/01/25 03:10:52;;;;;;;75.65;23.08;;;;;;;-14.13;100.00;59334.50;5113575;28;20692;-74
2022/01/25 03:13:26;;;;;;;64.97;21.27;;;;;;;-12.30;100.00;59519.47;5095398;28;20203;-73
2022/01/25 03:16:00;;;;;;;58.40;20.83;;;;;;;-12.37;100.00;59514.63;5113661;28;20194;-76
2022/01/25 03:18:44;;;;;;;68.47;22.15;;;;;;;-12.55;100.00;59493.38;5113771;28;20187;-75
2022/01/25 03:21:33;;;;;;;68.28;19.65;;;;;;;-13.91;100.00;59362.31;5095744;28;20207;-75
2022/01/25 03:24:01;;;;;;;68.90;19.73;;;;;;;-12.67;100.00;59480.84;5113376;28;20278;-76
2022/01/25 03:26:28;;;;;;;61.28;19.75;;;;;;;-14.00;100.00;59348.56;5113190;28;20207;-75
2022/01/25 03:29:00;;;;;;;44.70;14.57;;;;;;;-12.53;100.00;59498.41;5111771;28;20273;-76
2022/01/25 03:31:31;;;;;;;57.53;18.83;;;;;;;-12.81;100.00;59471.13;5113780;28;20205;-74
2022/01/25 03:34:03;;;;;;;65.00;20.13;;;;;;;-12.63;100.00;59485.03;5113419;28;20202;-76
2022/01/25 03:36:35;;;;;;;62.75;21.00;;;;;;;-12.66;100.00;59486.78;5113848;28;20202;-75
2022/01/25 03:39:04;;;;;;;58.78;20.65;;;;;;;-12.72;100.00;59481.03;5113037;28;20216;-75
2022/01/25 03:41:32;;;;;;;58.28;19.67;;;;;;;-13.97;100.00;59353.63;5112908;28;20213;-75
2022/01/25 03:44:01;;;;;;;61.22;20.05;;;;;;;-12.44;100.00;59512.22;5094786;28;20269;-73
2022/01/25 03:46:36;;;;;;;62.25;19.02;;;;;;;-12.34;100.00;59517.75;5094792;28;20203;-71
2022/01/25 03:51:55;;;;;;;53.63;18.17;;;;;;;-12.36;100.00;59520.56;5113188;28;20268;-75
2022/01/25 03:54:22;;;;;;;55.45;19.40;;;;;;;-12.96;100.00;59455.47;5089909;28;20223;-75
2022/01/25 03:57:04;;;;;;;55.53;19.20;;;;;;;-13.49;100.00;59401.22;5113290;28;20204;-75
2022/01/25 03:59:31;;;;;;;49.28;17.52;;;;;;;-13.82;100.00;59366.81;5094793;28;20198;-73
2022/01/25 04:01:58;;;;;;;56.25;18.60;;;;;;;-13.58;100.00;59391.31;5112051;28;20206;-74
2022/01/25 04:04:30;;;;;;;46.28;19.17;;;;;;;-12.21;100.00;59528.88;5112092;28;20199;-76
2022/01/25 04:07:08;;;;;;;56.85;18.65;;;;;;;-13.71;100.00;59378.28;5112786;28;20201;-74
2022/01/25 04:09:45;;;;;;;47.83;19.08;;;;;;;-12.46;100.00;59507.66;5112687;28;20305;-74
2022/01/25 04:12:19;;;;;;;56.30;19.27;;;;;;;-12.22;100.00;59527.81;5112639;28;20194;-74
2022/01/25 04:14:49;;;;;;;51.08;16.90;;;;;;;-12.86;100.00;59465.91;5112754;28;20205;-74
2022/01/25 04:17:22;;;;;;;43.60;16.33;;;;;;;-12.14;100.00;59541.09;5113681;28;20217;-76
2022/01/25 04:20:10;;;;;;;53.05;17.67;;;;;;;-12.10;100.00;59537.91;5112488;28;20282;-74
2022/01/25 04:25:33;;;;;;;52.47;17.15;;;;;;;-14.05;100.00;59340.91;5112632;28;20331;-73
2022/01/25 04:31:20;;;;;;;48.13;15.63;;;;;;;-12.52;100.00;59503.84;5109938;28;20255;-75
2022/01/25 04:34:09;;;;;;;52.20;17.30;;;;;;;-13.52;100.00;59392.69;5112183;28;20194;-75
2022/01/25 04:37:02;;;;;;;59.83;17.05;;;;;;;-13.54;100.00;59393.56;5112528;28;20217;-75
2022/01/25 04:50:53;;;;;;;43.10;15.27;;;;;;;-11.91;100.00;59560.22;5112170;28;20237;-76
2022/01/25 04:53:29;;;;;;;43.60;15.18;;;;;;;-13.10;100.00;59436.50;5112618;28;20312;-75
2022/01/25 04:56:04;;;;;;;42.47;14.85;;;;;;;-12.11;100.00;59541.25;5111886;28;20246;-76
2022/01/25 04:58:40;;;;;;;46.20;15.25;;;;;;;-13.92;100.00;59356.91;5112393;28;20209;-73
2022/01/25 05:01:08;;;;;;;35.05;13.00;;;;;;;-12.29;100.00;59530.34;5112765;28;20195;-76
2022/01/25 05:03:52;;;;;;;41.28;13.25;;;;;;;-12.28;100.00;59531.38;5111487;28;20227;-73
2022/01/25 05:06:20;;;;;;;42.60;14.27;;;;;;;-13.03;100.00;59449.19;5111801;28;20209;-74
2022/01/25 05:08:51;;;;;;;56.25;18.92;;;;;;;-12.18;100.00;59536.91;5111514;28;20205;-73
2022/01/25 05:11:28;;;;;;;45.97;15.48;;;;;;;-12.15;100.00;59535.16;5112771;28;20284;-72
2022/01/25 05:14:11;;;;;;;65.70;18.88;;;;;;;-12.27;100.00;59525.06;5112408;28;20195;-75
2022/01/25 05:16:47;;;;;;;50.38;16.85;;;;;;;-13.03;100.00;59444.31;5115488;28;20206;-75
2022/01/25 05:19:26;;;;;;;50.20;16.45;;;;;;;-13.84;100.00;59361.75;5115811;28;20195;-76
2022/01/25 05:22:07;;;;;;;54.03;16.63;;;;;;;-13.83;100.00;59375.03;5115970;28;20222;-77
2022/01/25 05:24:37;;;;;;;46.55;16.45;;;;;;;-12.47;100.00;59506.63;5116409;28;20542;-75
2022/01/25 05:27:07;;;;;;;48.45;16.58;;;;;;;-12.57;100.00;59496.19;5115683;28;20195;-74
2022/01/25 05:29:35;;;;;;;58.72;17.27;;;;;;;-12.99;100.00;59452.34;5115607;28;20733;-75
2022/01/25 05:32:07;;;;;;;47.65;17.23;;;;;;;-13.50;100.00;59397.75;5115717;28;20199;-73
2022/01/25 05:34:34;;;;;;;49.40;15.93;;;;;;;-14.24;100.00;59323.53;5115836;28;20203;-74
2022/01/25 05:37:03;;;;;;;28.98;10.98;;;;;;;-13.28;100.00;59420.69;5115153;28;20257;-74
2022/01/25 05:39:33;;;;;;;46.20;15.48;;;;;;;-14.95;100.00;59245.25;5115861;28;20206;-76
2022/01/25 05:42:16;;;;;;;28.55;10.57;;;;;;;-14.52;100.00;59291.44;5096884;28;20670;-74
2022/01/25 05:44:56;;;;;;;63.75;18.85;;;;;;;-14.34;100.00;59307.75;5115462;28;20676;-75
2022/01/25 05:47:28;;;;;;;91.05;25.75;;;;;;;-14.64;100.00;59281.38;5115377;28;20282;-75
2022/01/25 05:49:56;;;;;;;115.50;35.03;;;;;;;-13.30;100.00;59421.06;5096862;28;20255;-76
2022/01/25 05:52:28;;;;;;;95.85;28.83;;;;;;;-13.32;100.00;59413.53;5114890;28;20210;-73
2022/01/25 05:55:02;;;;;;;104.22;32.75;;;;;;;-14.64;100.00;59278.94;5114901;28;20223;-74
2022/01/25 05:57:30;;;;;;;86.40;25.65;;;;;;;-15.43;100.00;59200.19;5097423;28;20210;-73
2022/01/25 06:00:02;;;;;;;63.58;21.40;;;;;;;-13.27;100.00;59429.06;5115378;28;20642;-74
2022/01/25 06:02:31;;;;;;;39.10;15.20;;;;;;;-13.12;100.00;59439.31;5097014;28;20242;-75
2022/01/25 06:04:58;;;;;;;29.88;9.30;;;;;;;-11.59;100.00;59593.66;5114993;28;20252;-77
2022/01/25 06:07:27;;;;;;;21.35;7.75;;;;;;;-10.92;100.00;59662.69;5114476;28;20672;-76
2022/01/25 06:09:58;;;;;;;12.18;5.63;;;;;;;-10.51;100.00;59710.50;5114949;28;20226;-76
2022/01/25 06:12:25;;;;;;;17.90;5.72;;;;;;;-10.18;100.00;59742.59;5096569;28;20286;-74
2022/01/25 06:14:54;;;;;;;24.02;10.57;;;;;;;-10.10;100.00;59757.81;5115092;28;20195;-74
2022/01/25 06:17:31;;;;;;;28.20;11.63;;;;;;;-10.24;100.00;59738.78;5114576;28;20579;-74
2022/01/25 06:19:59;;;;;;;35.90;14.73;;;;;;;-9.97;100.00;59762.09;5114681;28;20201;-74
2022/01/25 06:22:31;;;;;;;42.78;14.77;;;;;;;-10.79;100.00;59676.78;5114324;28;20195;-74
2022/01/25 06:24:58;;;;;;;41.42;16.55;;;;;;;-8.89;100.00;59874.25;5114267;28;20278;-73
2022/01/25 06:27:30;;;;;;;50.75;17.05;;;;;;;-9.34;100.00;59825.13;5113984;28;20195;-74
2022/01/25 06:29:58;;;;;;;50.40;18.45;;;;;;;-8.48;100.00;59919.72;5113923;28;20245;-76
2022/01/25 06:32:27;;;;;;;53.90;21.45;;;;;;;-8.57;100.00;59912.75;5095978;28;20684;-76
2022/01/25 06:34:56;;;;;;;190.68;56.22;;;;;;;-7.89;100.00;59979.16;5098091;28;20195;-75
2022/01/25 06:37:23;;;;;;;108.50;40.58;;;;;;;-10.35;100.00;59727.25;5114277;28;20195;-76
2022/01/25 06:39:54;;;;;;;127.03;43.65;;;;;;;-9.51;100.00;59812.75;5114225;28;20207;-74
2022/01/25 06:42:27;;;;;;;140.75;45.78;;;;;;;-9.53;100.00;59813.13;5113784;28;20203;-75
2022/01/25 06:45:00;;;;;;;104.18;34.25;;;;;;;-10.64;100.00;59696.88;5114672;28;20203;-74
2022/01/25 06:47:29;;;;;;;64.47;20.83;;;;;;;-9.91;100.00;59773.31;5114514;28;20191;-77
2022/01/25 06:49:59;;;;;;;75.28;26.20;;;;;;;-11.56;100.00;59606.59;5113836;28;20226;-76
2022/01/25 06:52:29;;;;;;;85.70;28.50;;;;;;;-9.76;100.00;59786.56;5114082;28;20191;-75
2022/01/25 06:54:55;;;;;;;93.32;29.25;;;;;;;-9.61;100.00;59804.72;5113932;28;20215;-75
2022/01/25 06:57:26;;;;;;;102.13;32.28;;;;;;;-10.95;100.00;59666.91;5114039;28;20195;-74
2022/01/25 06:59:54;;;;;;;113.32;33.15;;;;;;;-11.50;100.00;59603.06;5115338;28;20199;-74
2022/01/25 07:02:21;;;;;;;78.53;26.10;;;;;;;-9.84;100.00;59780.66;5113869;28;20202;-74
2022/01/25 07:04:56;;;;;;;103.78;33.28;;;;;;;-9.48;100.00;59817.31;5113829;28;20256;-73
2022/01/25 07:07:25;;;;;;;84.03;28.35;;;;;;;-9.65;100.00;59800.53;5114385;28;20198;-73
2022/01/25 07:09:53;;;;;;;88.05;28.48;;;;;;;-9.58;100.00;59802.97;5113200;28;20223;-74
2022/01/25 07:12:21;;;;;;;68.15;24.83;;;;;;;-10.68;100.00;59692.72;5113611;28;20195;-76
2022/01/25 07:14:48;;;;;;;63.00;23.67;;;;;;;-9.12;100.00;59850.13;5095807;28;20195;-75
2022/01/25 07:17:18;;;;;;;72.97;27.08;;;;;;;-9.38;100.00;59822.84;5114189;28;20240;-77
2022/01/25 07:19:49;;;;;;;75.78;27.42;;;;;;;-9.35;100.00;59828.47;5095409;28;20190;-73
2022/01/25 07:22:46;;;;;;;76.32;26.33;;;;;;;-9.01;100.00;59871.53;5113938;28;20210;-74
2022/01/25 07:25:19;;;;;;;80.63;28.30;;;;;;;-10.24;100.00;59733.84;5113260;28;20217;-73
2022/01/25 07:27:48;;;;;;;76.35;30.05;;;;;;;-9.36;100.00;59832.34;5095142;28;20203;-74
2022/01/25 07:30:17;;;;;;;77.53;28.52;;;;;;;-10.07;100.00;59751.63;5113408;28;20230;-73
2022/01/25 07:32:47;;;;;;;74.70;28.65;;;;;;;-8.46;100.00;59924.28;5112594;28;20211;-74
2022/01/25 07:35:15;;;;;;;89.55;32.70;;;;;;;-8.99;100.00;59868.69;5113501;28;20635;-74
2022/01/25 07:37:45;;;;;;;82.78;31.42;;;;;;;-8.25;100.00;59941.38;5112964;28;20194;-76
2022/01/25 07:40:17;;;;;;;85.82;31.33;;;;;;;-7.93;100.00;59979.91;5113571;28;20202;-75
2022/01/25 07:42:46;;;;;;;84.50;31.83;;;;;;;-7.62;100.00;60008.94;5112461;28;20742;-74
2022/01/25 07:45:14;;;;;;;95.15;37.35;;;;;;;-7.45;100.00;60029.25;5113664;28;20199;-76
2022/01/25 07:47:41;;;;;;;106.47;38.22;;;;;;;-7.30;100.00;60040.06;5112672;28;20237;-75
2022/01/25 07:50:10;;;;;;;93.95;34.13;;;;;;;-8.06;100.00;59965.72;5112843;28;20227;-76
2022/01/25 07:52:40;;;;;;;88.35;30.48;;;;;;;-7.19;100.00;60056.56;5112839;28;20202;-75
2022/01/25 07:55:22;;;;;;;84.47;32.75;;;;;;;-6.76;100.00;60101.78;5112439;28;20222;-74
2022/01/25 07:57:56;;;;;;;91.22;34.13;;;;;;;-6.63;100.00;60115.44;5112302;28;20207;-73
2022/01/25 08:00:25;;;;;;;97.10;36.25;;;;;;;-7.70;100.00;60001.03;5112849;28;20255;-73
2022/01/25 08:02:57;;;;;;;85.57;33.58;;;;;;;-6.41;100.00;60136.09;5112782;28;20226;-75
2022/01/25 08:05:26;;;;;;;77.78;30.15;;;;;;;-6.16;100.00;60164.88;5112348;28;20199;-75
2022/01/25 08:07:54;;;;;;;79.22;27.20;;;;;;;-6.64;100.00;60114.41;5112138;28;20631;-76
2022/01/25 08:10:25;;;;;;;69.65;28.17;;;;;;;-5.25;100.00;60259.59;5093893;28;20231;-74
2022/01/25 08:12:56;;;;;;;70.47;27.33;;;;;;;-6.38;100.00;60141.75;5112493;28;20271;-75
2022/01/25 08:15:31;;;;;;;74.70;28.42;;;;;;;-4.80;100.00;60304.53;5112471;28;20203;-75
2022/01/25 08:18:04;;;;;;;78.18;31.25;;;;;;;-4.28;100.00;60360.78;5112771;28;20260;-76
2022/01/25 08:20:31;;;;;;;94.80;33.60;;;;;;;-5.02;100.00;60278.84;5112980;28;20194;-74
2022/01/25 08:23:14;;;;;;;89.22;33.50;;;;;;;-3.96;100.00;60387.56;5112640;28;20259;-72
2022/01/25 08:25:43;;;;;;;69.95;28.70;;;;;;;-4.01;100.00;60384.25;5113027;28;20206;-76
2022/01/25 08:28:12;;;;;;;72.95;30.35;;;;;;;-3.82;100.00;60404.31;5112121;28;20232;-75
2022/01/25 08:30:44;;;;;;;74.03;28.95;;;;;;;-5.79;100.00;60200.28;5113575;28;20230;-75
2022/01/25 08:33:12;;;;;;;78.63;30.90;;;;;;;-4.00;100.00;60387.81;5112858;28;20698;-73
2022/01/25 08:35:46;;;;;;;76.13;28.02;;;;;;;-5.19;100.00;60265.94;5094306;28;20282;-74
2022/01/25 08:38:18;;;;;;;72.93;28.13;;;;;;;-4.86;100.00;60298.19;5112305;28;20211;-74
2022/01/25 08:40:47;;;;;;;76.40;26.90;;;;;;;-3.54;100.00;60438.81;5112480;28;20210;-75
2022/01/25 08:43:15;;;;;;;84.82;28.88;;;;;;;-3.53;100.00;60434.91;5112782;28;20248;-76
2022/01/25 08:45:45;;;;;;;67.82;27.52;;;;;;;-4.04;100.00;60381.09;5095471;28;20211;-74
2022/01/25 08:48:12;;;;;;;58.30;25.35;;;;;;;-4.19;100.00;60375.22;5112707;28;20256;-76
2022/01/25 08:50:43;;;;;;;38.25;16.20;;;;;;;-4.13;100.00;60371.59;5113338;28;20223;-74
2022/01/25 08:53:11;;;;;;;30.83;14.55;;;;;;;-4.13;100.00;60374.09;5116999;28;20199;-73
2022/01/25 08:55:40;;;;;;;26.35;11.88;;;;;;;-4.49;100.00;60339.16;5115880;28;20287;-73
2022/01/25 08:58:11;;;;;;;26.92;11.73;;;;;;;-4.58;100.00;60325.22;5116368;28;20255;-74
2022/01/25 09:00:42;;;;;;;31.20;12.85;;;;;;;-4.57;100.00;60326.28;5116359;28;20669;-76
2022/01/25 09:03:09;;;;;;;27.52;12.77;;;;;;;-4.81;100.00;60300.47;5098032;28;20214;-76
2022/01/25 09:05:37;;;;;;;25.80;11.43;;;;;;;-4.51;100.00;60332.59;5097796;28;20199;-76
2022/01/25 09:08:06;;;;;;;26.08;11.05;;;;;;;-4.68;100.00;60314.16;5116020;28;20205;-75
2022/01/25 09:10:34;;;;;;;25.50;11.80;;;;;;;-4.72;100.00;60309.94;5115708;28;20248;-74
2022/01/25 09:13:05;;;;;;;31.02;11.73;;;;;;;-4.71;100.00;60314.00;5115767;28;20613;-75
2022/01/25 09:15:37;;;;;;;18.25;9.18;;;;;;;-4.87;100.00;60294.66;5116470;28;20202;-74
2022/01/25 09:18:13;;;;;;;26.85;11.05;;;;;;;-5.07;100.00;60276.09;5116089;28;20199;-74
2022/01/25 09:20:41;;;;;;;19.90;9.77;;;;;;;-5.20;100.00;60259.91;5115369;28;20642;-74
2022/01/25 09:23:08;;;;;;;22.80;9.60;;;;;;;-5.25;100.00;60252.16;5115533;28;20636;-74
2022/01/25 09:25:38;;;;;;;21.33;8.90;;;;;;;-5.33;100.00;60248.69;5115809;28;20256;-78
2022/01/25 09:28:12;;;;;;;26.60;10.32;;;;;;;-5.20;100.00;60259.91;5116020;28;20199;-75
2022/01/25 09:30:41;;;;;;;26.83;12.02;;;;;;;-5.29;100.00;60255.41;5111374;28;20317;-75
2022/01/25 09:33:10;;;;;;;24.10;9.40;;;;;;;-5.16;100.00;60264.09;5115769;28;20203;-73
2022/01/25 09:35:38;;;;;;;25.48;11.52;;;;;;;-5.55;100.00;60228.00;5115017;28;20255;-75
2022/01/25 09:38:07;;;;;;;24.50;10.65;;;;;;;-4.66;100.00;60311.81;5115375;28;20206;-76
2022/01/25 09:40:36;;;;;;;22.73;10.55;;;;;;;-4.50;100.00;60333.13;5115391;28;20279;-74
2022/01/25 09:43:03;;;;;;;22.55;10.25;;;;;;;-4.53;100.00;60330.50;5115773;28;20203;-75
2022/01/25 09:45:32;;;;;;;23.15;10.93;;;;;;;-4.63;100.00;60319.97;5114953;28;20682;-73
2022/01/25 09:48:08;;;;;;;32.88;11.98;;;;;;;-4.81;100.00;60301.00;5114885;28;20267;-76
2022/01/25 09:50:39;;;;;;;23.85;11.50;;;;;;;-4.69;100.00;60318.06;5115697;28;20222;-75
2022/01/25 09:53:07;;;;;;;22.05;9.35;;;;;;;-4.51;100.00;60342.53;5115382;28;20214;-74
2022/01/25 09:55:36;;;;;;;21.52;8.82;;;;;;;-4.46;100.00;60332.38;5115153;28;20214;-75
2022/01/25 09:58:04;;;;;;;19.55;8.23;;;;;;;-4.49;100.00;60334.72;5115233;28;20682;-75
2022/01/25 10:00:34;;;;;;;21.63;9.52;;;;;;;-4.28;100.00;60353.31;5114185;28;20326;-74
2022/01/25 10:03:10;;;;;;;27.83;10.80;;;;;;;-4.36;100.00;60347.88;5114272;28;20230;-74
2022/01/25 10:05:41;;;;;;;25.60;11.88;;;;;;;-4.15;100.00;60364.53;5115878;28;20206;-74
2022/01/25 10:08:10;;;;;;;22.45;10.50;;;;;;;-3.78;100.00;60408.53;5115233;28;20639;-74
2022/01/25 10:10:40;;;;;;;23.73;10.20;;;;;;;-4.10;100.00;60374.78;5096323;28;20313;-73
2022/01/25 10:13:15;;;;;;;19.92;9.45;;;;;;;-4.22;100.00;60362.13;5114448;28;20715;-74
2022/01/25 10:15:43;;;;;;;23.17;10.15;;;;;;;-3.87;100.00;60399.56;5114635;28;20203;-73
2022/01/25 10:18:11;;;;;;;19.30;9.48;;;;;;;-3.93;100.00;60397.66;5114145;28;20222;-77
2022/01/25 10:20:42;;;;;;;23.00;10.77;;;;;;;-3.62;100.00;60430.38;5114594;28;20190;-75
2022/01/25 10:23:19;;;;;;;22.77;10.18;;;;;;;-3.32;100.00;60456.53;5114420;28;20252;-75
2022/01/25 10:25:48;;;;;;;23.38;10.45;;;;;;;-2.75;100.00;60517.25;5114256;28;20661;-76
2022/01/25 10:28:17;;;;;;;23.88;11.13;;;;;;;-3.50;100.00;60438.06;5114343;28;20203;-73
2022/01/25 10:30:50;;;;;;;20.17;9.73;;;;;;;-2.70;100.00;60517.00;5114424;28;20235;-74
2022/01/25 10:33:28;;;;;;;26.00;12.05;;;;;;;-2.16;100.00;60581.00;5114239;28;20244;-74
2022/01/25 10:35:56;;;;;;;24.13;10.55;;;;;;;-2.18;100.00;60576.41;5114179;28;20657;-75
2022/01/25 10:38:28;;;;;;;18.07;9.07;;;;;;;-2.32;100.00;60561.59;5113738;28;20670;-76
2022/01/25 10:40:59;;;;;;;20.77;10.32;;;;;;;-2.63;100.00;60529.91;5114369;28;20494;-74
2022/01/25 10:43:30;;;;;;;28.65;11.57;;;;;;;-2.76;100.00;60516.19;5114131;28;20215;-74
2022/01/25 10:46:17;;;;;;;17.15;8.13;;;;;;;-2.34;100.00;60559.50;5114206;28;20282;-74
2022/01/25 10:48:54;;;;;;;19.17;8.87;;;;;;;-1.92;100.00;60598.88;5095646;28;20207;-74
2022/01/25 10:51:26;;;;;;;21.50;10.17;;;;;;;-1.92;100.00;60599.44;5113582;28;21075;-74
2022/01/25 10:54:07;;;;;;;21.70;9.13;;;;;;;-1.11;100.00;60694.56;5113028;28;20879;-75
2022/01/25 10:56:47;;;;;;;15.50;7.93;;;;;;;-1.90;100.00;60606.00;5114001;28;20857;-75
2022/01/25 10:59:19;;;;;;;19.93;9.27;;;;;;;-1.83;100.00;60618.41;5114543;28;20570;-76
2022/01/25 11:01:50;;;;;;;22.77;10.70;;;;;;;-2.81;100.00;60510.91;5114520;28;20464;-73
2022/01/25 11:04:32;;;;;;;23.73;9.00;;;;;;;-1.59;100.00;60641.28;5114013;28;20453;-74
2022/01/25 11:07:04;;;;;;;20.80;9.77;;;;;;;-1.79;100.00;60618.16;5113652;28;20444;-74
2022/01/25 11:09:36;;;;;;;20.30;10.33;;;;;;;-0.70;100.00;60729.38;5114234;28;20505;-75
2022/01/25 11:12:07;;;;;;;27.70;12.40;;;;;;;0.54;100.00;60863.22;5112599;28;20592;-75
2022/01/25 11:14:54;;;;;;;26.47;9.37;;;;;;;-0.56;100.00;60746.72;5113162;28;21001;-74
2022/01/25 11:17:28;;;;;;;21.07;10.50;;;;;;;-1.10;100.00;60685.59;5113580;28;21025;-72
2022/01/25 11:19:58;;;;;;;32.83;11.80;;;;;;;0.05;100.00;60811.31;5113414;28;20443;-74
2022/01/25 11:22:26;;;;;;;18.40;8.80;;;;;;;-0.48;100.00;60755.19;5113273;28;20951;-76
2022/01/25 11:24:55;;;;;;;20.07;8.50;;;;;;;-0.38;100.00;60765.75;5113491;28;20476;-73
2022/01/25 11:27:26;;;;;;;23.43;10.43;;;;;;;0.19;100.00;60826.13;5113498;28;20501;-75
2022/01/25 11:29:57;;;;;;;23.73;10.17;;;;;;;0.20;100.00;60827.19;5113719;28;20489;-74
2022/01/25 11:32:28;;;;;;;21.73;10.60;;;;;;;0.40;100.00;60848.41;5113474;28;20538;-75
2022/01/25 11:34:59;;;;;;;21.23;9.97;;;;;;;0.54;100.00;60860.19;5113471;28;20437;-73
2022/01/25 11:37:39;;;;;;;21.33;10.63;;;;;;;0.21;100.00;60828.25;5113885;28;20433;-73
2022/01/25 11:40:23;;;;;;;22.93;10.47;;;;;;;0.95;100.00;60905.66;5113197;28;20927;-74
2022/01/25 11:42:53;;;;;;;17.83;9.07;;;;;;;0.78;100.00;60888.69;5112360;28;20460;-75
2022/01/25 11:48:11;;;;;;;22.03;10.97;;;;;;;1.81;100.00;60996.88;5115790;28;20440;-77
2022/01/25 11:50:47;;;;;;;19.33;9.43;;;;;;;1.10;100.00;60921.53;5094774;28;20451;-75
2022/01/25 11:53:16;;;;;;;21.63;11.77;;;;;;;1.67;100.00;60982.03;5112931;28;20491;-74
2022/01/25 11:55:47;;;;;;;24.17;10.53;;;;;;;2.21;100.00;61044.38;5112354;28;20480;-75
2022/01/25 11:58:17;;;;;;;22.27;11.17;;;;;;;1.42;100.00;60955.50;5112711;28;21059;-77
2022/01/25 12:00:48;;;;;;;27.20;12.90;;;;;;;2.73;100.00;61098.53;5113239;28;20482;-75
2022/01/25 12:03:27;;;;;;;22.83;11.60;;;;;;;2.78;100.00;61098.84;5112420;28;20445;-76
2022/01/25 12:06:03;;;;;;;25.03;10.93;;;;;;;2.95;100.00;61119.41;5113123;28;20437;-75
2022/01/25 12:08:39;;;;;;;25.17;12.10;;;;;;;2.37;100.00;61056.34;5112825;28;20827;-75
2022/01/25 12:11:44;;;;;;;22.67;11.67;;;;;;;3.06;100.00;61128.59;5112597;28;20444;-75
2022/01/25 12:14:18;;;;;;;22.27;9.93;;;;;;;3.30;100.00;61154.09;5109270;28;20513;-75
2022/01/25 12:16:50;;;;;;;22.07;11.17;;;;;;;3.40;100.00;61164.75;5112350;28;20552;-76
2022/01/25 12:19:20;;;;;;;24.30;12.17;;;;;;;3.47;100.00;61159.59;5112443;28;20498;-74
2022/01/25 12:22:11;;;;;;;23.70;11.87;;;;;;;4.15;100.00;61244.50;5112671;28;20494;-76
2022/01/25 12:25:03;;;;;;;21.60;11.43;;;;;;;4.10;96.87;61238.66;5113081;28;20436;-75
2022/01/25 12:27:57;;;;;;;21.67;11.93;;;;;;;3.93;96.41;61221.09;5111790;28;20441;-77
2022/01/25 12:30:43;;;;;;;24.00;11.90;;;;;;;3.96;96.21;61226.81;5094045;28;20468;-77
2022/01/25 12:33:23;;;;;;;21.57;10.60;;;;;;;3.32;93.12;61156.75;5110844;28;20995;-76
2022/01/25 12:36:03;;;;;;;25.10;12.33;;;;;;;3.88;90.83;61215.25;5112454;28;20875;-75
2022/01/25 12:38:44;;;;;;;21.03;11.40;;;;;;;4.95;85.56;61328.63;5112825;28;20817;-77
2022/01/25 12:41:15;;;;;;;24.03;12.20;;;;;;;4.84;83.82;61311.84;5112743;28;20429;-78
2022/01/25 12:43:45;;;;;;;19.93;11.27;;;;;;;5.14;78.26;61348.84;5112143;28;20931;-76
2022/01/25 12:46:18;;;;;;;21.40;11.83;;;;;;;4.80;81.40;61312.63;5112566;28;20501;-76
2022/01/25 12:48:53;;;;;;;20.90;11.73;;;;;;;3.48;83.39;61173.25;5112335;28;20444;-77
2022/01/25 12:51:23;;;;;;;21.80;11.13;;;;;;;4.38;83.43;61267.91;5111906;28;20448;-75
2022/01/25 12:54:16;;;;;;;21.50;11.37;;;;;;;4.93;85.02;61331.53;5112275;28;21026;-76
2022/01/25 12:56:47;;;;;;;20.13;10.27;;;;;;;5.32;79.76;61364.94;5112387;28;20447;-75